Time;durP1;ratioP1;P1;durP2;ratioP2;P2;SDS_P1;SDS_P2;PMS_P1;PMS_P2;Temp;Humidity;BMP_temperature;BMP_pressure;BME280_temperature;BME280_humidity;BME280_pressure;Samples;Min_cycle;Max_cycle;Signal;HPM_P1;HPM_P2
2021/01/16 00:02:05;;;;;;;33.00;13.30;;;0.70;99.90;;;;;;5020779;28;20068;-76
2021/01/16 00:04:31;;;;;;;27.80;13.57;;;0.70;99.90;;;;;;5019542;28;20084;-75
2021/01/16 00:06:56;;;;;;;31.23;14.32;;;0.70;99.90;;;;;;5016573;28;20026;-76
2021/01/16 00:09:23;;;;;;;34.97;14.60;;;0.70;99.90;;;;;;5011348;28;20034;-76
2021/01/16 00:11:49;;;;;;;28.75;14.88;;;0.70;99.90;;;;;;5019274;28;20035;-75
2021/01/16 00:14:15;;;;;;;35.75;14.77;;;0.60;99.90;;;;;;5017299;28;20033;-76
2021/01/16 00:16:41;;;;;;;32.45;14.07;;;0.60;99.90;;;;;;5013835;28;20042;-75
2021/01/16 00:19:07;;;;;;;29.27;14.27;;;0.60;99.90;;;;;;5015553;28;20390;-75
2021/01/16 00:21:32;;;;;;;33.28;14.68;;;0.60;99.90;;;;;;5009042;28;20057;-75
2021/01/16 00:23:58;;;;;;;35.55;14.75;;;0.70;99.90;;;;;;5016902;28;20025;-76
2021/01/16 00:26:23;;;;;;;27.95;13.98;;;0.60;99.90;;;;;;5015255;28;20044;-76
2021/01/16 00:28:49;;;;;;;33.65;14.85;;;0.60;99.90;;;;;;5015281;28;20030;-75
2021/01/16 00:31:14;;;;;;;29.60;13.43;;;0.70;99.90;;;;;;5025400;28;20467;-75
2021/01/16 00:33:40;;;;;;;30.85;13.75;;;0.60;99.90;;;;;;5014353;28;20059;-75
2021/01/16 00:36:06;;;;;;;39.30;15.35;;;0.60;99.90;;;;;;5015014;28;20041;-75
2021/01/16 00:38:38;;;;;;;33.00;14.07;;;0.60;99.90;;;;;;5015311;28;20102;-75
2021/01/16 00:41:04;;;;;;;31.40;13.98;;;0.70;99.90;;;;;;5012837;28;20482;-75
2021/01/16 00:43:30;;;;;;;33.20;15.13;;;0.60;99.90;;;;;;5012285;28;20069;-76
2021/01/16 00:45:55;;;;;;;35.50;15.70;;;0.60;99.90;;;;;;5014331;28;20034;-75
2021/01/16 00:48:23;;;;;;;32.28;14.50;;;0.60;99.90;;;;;;5013684;28;20490;-76
2021/01/16 00:50:51;;;;;;;35.67;15.88;;;0.60;99.90;;;;;;5011296;28;20042;-75
2021/01/16 00:53:17;;;;;;;32.17;15.40;;;0.60;99.90;;;;;;5014800;28;20148;-76
2021/01/16 00:55:43;;;;;;;41.35;17.63;;;0.60;99.90;;;;;;5014099;28;20837;-75
2021/01/16 00:58:14;;;;;;;34.83;15.68;;;0.60;99.90;;;;;;5010878;28;20038;-76
2021/01/16 01:00:42;;;;;;;30.80;15.75;;;0.60;99.90;;;;;;5007933;28;20033;-76
2021/01/16 01:03:08;;;;;;;38.78;15.60;;;0.60;99.90;;;;;;5014075;28;20034;-76
2021/01/16 01:05:34;;;;;;;37.60;15.23;;;0.60;99.90;;;;;;5009177;28;20062;-75
2021/01/16 01:08:00;;;;;;;34.58;15.82;;;0.60;99.90;;;;;;5017550;28;20040;-76
2021/01/16 01:10:30;;;;;;;36.20;15.98;;;0.60;99.90;;;;;;5013704;28;20050;-75
2021/01/16 01:12:56;;;;;;;38.95;15.60;;;0.60;99.90;;;;;;5016968;28;20060;-76
2021/01/16 01:15:22;;;;;;;37.30;16.42;;;0.60;99.90;;;;;;5015099;28;20038;-77
2021/01/16 01:17:55;;;;;;;37.60;17.02;;;0.60;99.90;;;;;;5013118;28;20730;-76
2021/01/16 01:20:21;;;;;;;40.43;16.23;;;0.60;99.90;;;;;;5013622;28;20441;-76
2021/01/16 01:22:48;;;;;;;39.30;16.70;;;0.60;99.90;;;;;;5015246;28;20148;-76
2021/01/16 01:25:15;;;;;;;41.83;16.83;;;0.50;99.90;;;;;;5014498;28;20095;-74
2021/01/16 01:27:41;;;;;;;35.50;15.63;;;0.60;99.90;;;;;;5013087;28;20030;-74
2021/01/16 01:30:08;;;;;;;37.55;15.57;;;0.60;99.90;;;;;;5010039;28;20033;-75
2021/01/16 01:32:33;;;;;;;41.75;16.15;;;0.60;99.90;;;;;;5011311;28;20029;-75
2021/01/16 01:34:59;;;;;;;38.13;14.80;;;0.60;99.90;;;;;;5012404;28;20521;-75
2021/01/16 01:37:25;;;;;;;39.15;17.13;;;0.60;99.90;;;;;;5010646;28;20026;-75
2021/01/16 01:39:51;;;;;;;35.95;16.73;;;0.60;99.90;;;;;;5010853;28;20061;-75
2021/01/16 01:42:19;;;;;;;42.35;16.65;;;0.50;99.90;;;;;;5012300;28;20041;-75
2021/01/16 01:44:45;;;;;;;38.65;15.85;;;0.60;99.90;;;;;;5011841;28;20034;-74
2021/01/16 01:47:16;;;;;;;31.52;15.27;;;0.60;99.90;;;;;;5010034;28;20033;-75
2021/01/16 01:49:42;;;;;;;37.45;15.32;;;0.60;99.90;;;;;;5008248;28;20034;-75
2021/01/16 01:52:12;;;;;;;36.70;16.33;;;0.60;99.90;;;;;;5014533;28;20078;-75
2021/01/16 01:54:37;;;;;;;44.42;17.92;;;0.60;99.90;;;;;;5013056;28;20105;-75
2021/01/16 01:57:06;;;;;;;39.00;16.23;;;0.60;99.90;;;;;;5017202;28;20132;-76
2021/01/16 01:59:36;;;;;;;38.70;16.58;;;0.60;99.90;;;;;;5004153;28;20042;-75
2021/01/16 02:02:03;;;;;;;35.83;15.68;;;0.50;99.90;;;;;;5010901;28;20045;-75
2021/01/16 02:04:31;;;;;;;38.90;17.10;;;0.60;99.90;;;;;;5014390;28;20111;-74
2021/01/16 02:07:00;;;;;;;35.92;16.35;;;0.60;99.90;;;;;;5010509;28;20033;-74
2021/01/16 02:09:26;;;;;;;40.67;16.90;;;0.60;99.90;;;;;;5013026;28;20064;-73
2021/01/16 02:11:53;;;;;;;38.28;16.52;;;0.60;99.90;;;;;;5012161;28;20644;-76
2021/01/16 02:14:27;;;;;;;36.15;16.40;;;0.50;99.90;;;;;;5023105;28;20045;-76
2021/01/16 02:16:55;;;;;;;40.17;17.50;;;0.50;99.90;;;;;;5013128;28;20041;-76
2021/01/16 02:19:47;;;;;;;37.65;17.10;;;0.60;99.90;;;;;;5010685;28;20076;-76
2021/01/16 02:22:14;;;;;;;41.38;17.00;;;0.60;99.90;;;;;;5009516;28;20057;-76
2021/01/16 02:24:51;;;;;;;40.03;17.40;;;0.60;99.90;;;;;;5000488;28;20073;-76
2021/01/16 02:27:41;;;;;;;44.65;17.63;;;0.60;99.90;;;;;;5011770;28;20543;-76
2021/01/16 02:30:07;;;;;;;44.75;18.08;;;0.60;99.90;;;;;;5009845;28;20041;-76
2021/01/16 02:32:35;;;;;;;41.88;17.77;;;0.60;99.90;;;;;;5011004;28;20132;-75
2021/01/16 02:35:04;;;;;;;39.92;16.48;;;0.60;99.90;;;;;;5011817;28;20034;-76
2021/01/16 02:37:51;;;;;;;43.75;17.98;;;0.60;99.90;;;;;;5016552;28;20175;-76
2021/01/16 02:40:23;;;;;;;42.75;16.65;;;0.60;99.90;;;;;;5014424;28;20038;-76
2021/01/16 02:43:14;;;;;;;42.53;18.15;;;0.60;99.90;;;;;;5011783;28;20146;-76
2021/01/16 02:45:48;;;;;;;36.67;17.52;;;0.60;99.90;;;;;;5016906;28;20121;-75
2021/01/16 02:48:27;;;;;;;43.10;17.80;;;0.60;99.90;;;;;;5014869;28;20616;-76
2021/01/16 02:50:54;;;;;;;41.55;17.05;;;0.60;99.90;;;;;;5013559;28;20056;-76
2021/01/16 02:53:23;;;;;;;45.75;18.35;;;0.60;99.90;;;;;;5014359;28;20045;-76
2021/01/16 02:55:50;;;;;;;37.80;16.60;;;0.60;99.90;;;;;;5010768;28;20037;-76
2021/01/16 02:58:17;;;;;;;42.10;18.65;;;0.60;99.90;;;;;;5008533;28;20509;-76
2021/01/16 03:00:42;;;;;;;40.53;18.85;;;0.60;99.90;;;;;;5014210;28;20125;-76
2021/01/16 03:03:08;;;;;;;43.08;18.17;;;0.60;99.90;;;;;;5022042;28;20162;-76
2021/01/16 03:05:33;;;;;;;49.97;18.15;;;0.60;99.90;;;;;;5015479;28;20042;-76
2021/01/16 03:08:00;;;;;;;40.78;16.85;;;0.70;99.90;;;;;;5017624;28;20116;-75
2021/01/16 03:10:26;;;;;;;43.67;17.10;;;0.60;99.90;;;;;;5010686;28;20486;-76
2021/01/16 03:12:52;;;;;;;41.28;17.17;;;0.60;99.90;;;;;;4997587;28;20931;-75
2021/01/16 03:15:19;;;;;;;43.85;17.10;;;0.60;99.90;;;;;;5011611;28;20033;-75
2021/01/16 03:17:53;;;;;;;42.80;18.00;;;0.60;99.90;;;;;;5007264;28;20128;-74
2021/01/16 03:20:19;;;;;;;;;;;0.60;99.90;;;;;;5013317;28;20094;-75
2021/01/16 03:22:44;;;;;;;42.05;16.65;;;0.60;99.90;;;;;;5015139;28;20035;-75
2021/01/16 03:25:11;;;;;;;41.83;16.80;;;0.60;99.90;;;;;;5013774;28;20033;-75
2021/01/16 03:27:36;;;;;;;42.72;17.58;;;0.60;99.90;;;;;;5021443;28;20033;-77
2021/01/16 03:30:03;;;;;;;40.95;18.15;;;0.60;99.90;;;;;;5011607;28;20038;-76
2021/01/16 03:32:29;;;;;;;41.85;17.27;;;0.60;99.90;;;;;;5005335;28;20037;-75
2021/01/16 03:34:54;;;;;;;42.40;17.67;;;0.60;99.90;;;;;;5012879;28;20029;-75
2021/01/16 03:37:20;;;;;;;41.58;17.60;;;0.60;99.90;;;;;;5018487;28;20042;-75
2021/01/16 03:39:46;;;;;;;40.45;16.77;;;0.60;99.90;;;;;;5012604;28;20029;-75
2021/01/16 03:42:12;;;;;;;46.58;17.58;;;0.60;99.90;;;;;;5012203;28;20068;-74
2021/01/16 03:44:38;;;;;;;39.70;17.85;;;0.60;99.90;;;;;;5015430;28;20030;-75
2021/01/16 03:47:04;;;;;;;42.47;17.30;;;0.60;99.90;;;;;;5015518;28;20052;-75
2021/01/16 03:49:30;;;;;;;46.60;17.60;;;0.60;99.90;;;;;;5011599;28;20041;-76
2021/01/16 03:51:56;;;;;;;40.15;17.67;;;0.60;99.90;;;;;;5012628;28;20045;-75
2021/01/16 03:54:21;;;;;;;42.03;17.65;;;0.60;99.90;;;;;;5014380;28;20030;-76
2021/01/16 03:56:47;;;;;;;43.88;18.75;;;0.60;99.90;;;;;;5013773;28;20064;-76
2021/01/16 03:59:12;;;;;;;50.33;18.67;;;0.50;99.90;;;;;;5013624;28;20034;-75
2021/01/16 04:01:38;;;;;;;42.63;18.05;;;0.60;99.90;;;;;;5012528;28;20417;-76
2021/01/16 04:04:04;;;;;;;41.97;17.48;;;0.60;99.90;;;;;;5015090;28;20067;-76
2021/01/16 04:06:30;;;;;;;50.92;18.17;;;0.60;99.90;;;;;;5015275;28;20053;-74
2021/01/16 04:08:56;;;;;;;47.42;18.70;;;0.60;99.90;;;;;;5017500;28;20034;-75
2021/01/16 04:11:21;;;;;;;44.00;18.83;;;0.60;99.90;;;;;;5015927;28;20796;-76
2021/01/16 04:13:47;;;;;;;41.83;17.35;;;0.60;99.90;;;;;;5017641;28;20026;-74
2021/01/16 04:16:13;;;;;;;45.78;20.13;;;0.60;99.90;;;;;;5016270;28;20450;-75
2021/01/16 04:18:38;;;;;;;45.45;18.80;;;0.60;99.90;;;;;;5014910;28;20037;-75
2021/01/16 04:21:04;;;;;;;45.22;18.05;;;0.60;99.90;;;;;;5012538;28;20154;-74
2021/01/16 04:23:31;;;;;;;47.72;19.55;;;0.60;99.90;;;;;;5014438;28;20045;-75
2021/01/16 04:25:57;;;;;;;47.53;19.52;;;0.60;99.90;;;;;;5012945;28;20896;-75
2021/01/16 04:28:22;;;;;;;53.15;19.83;;;0.50;99.90;;;;;;5010894;28;20038;-75
2021/01/16 04:30:48;;;;;;;52.45;19.17;;;0.50;99.90;;;;;;5012933;28;20111;-75
2021/01/16 04:33:14;;;;;;;46.95;19.40;;;0.60;99.90;;;;;;5013583;28;20861;-75
2021/01/16 04:35:40;;;;;;;50.05;20.08;;;0.60;99.90;;;;;;5018034;28;20513;-75
2021/01/16 04:38:05;;;;;;;48.75;19.48;;;0.60;99.90;;;;;;5012090;28;20041;-74
2021/01/16 04:40:32;;;;;;;51.63;19.83;;;0.50;99.90;;;;;;5013913;28;20387;-75
2021/01/16 04:43:00;;;;;;;42.17;18.30;;;0.50;99.90;;;;;;5011556;28;20033;-75
2021/01/16 04:45:26;;;;;;;46.92;19.08;;;0.50;99.90;;;;;;5011714;28;20035;-75
2021/01/16 04:47:56;;;;;;;44.92;18.17;;;0.50;99.90;;;;;;5012861;28;20048;-75
2021/01/16 04:50:26;;;;;;;48.55;18.75;;;0.50;99.90;;;;;;5015706;28;20098;-75
2021/01/16 04:53:01;;;;;;;46.65;18.88;;;0.50;99.90;;;;;;5014913;28;20069;-75
2021/01/16 04:55:30;;;;;;;40.10;17.17;;;0.50;99.90;;;;;;5019270;28;20125;-75
2021/01/16 04:58:11;;;;;;;49.17;19.35;;;0.50;99.90;;;;;;5007460;28;20034;-75
2021/01/16 05:00:38;;;;;;;48.17;19.30;;;0.50;99.90;;;;;;5016479;28;20041;-75
2021/01/16 05:03:09;;;;;;;46.33;18.52;;;0.50;99.90;;;;;;5015633;28;20091;-74
2021/01/16 05:05:38;;;;;;;47.03;18.15;;;0.50;99.90;;;;;;5010019;28;20045;-76
2021/01/16 05:08:05;;;;;;;42.58;18.00;;;0.50;99.90;;;;;;5010302;28;20115;-75
2021/01/16 05:10:38;;;;;;;47.42;18.85;;;0.60;99.90;;;;;;5007980;28;20026;-76
2021/01/16 05:13:12;;;;;;;44.53;19.70;;;0.60;99.90;;;;;;5029936;28;20038;-75
2021/01/16 05:15:40;;;;;;;45.58;18.38;;;0.50;99.90;;;;;;5014189;28;20470;-75
2021/01/16 05:18:09;;;;;;;47.03;19.35;;;0.50;99.90;;;;;;5016827;28;20125;-75
2021/01/16 05:20:36;;;;;;;41.50;18.13;;;0.50;99.90;;;;;;5005698;28;20041;-75
2021/01/16 05:23:11;;;;;;;43.83;17.30;;;0.50;99.90;;;;;;5012595;28;20503;-75
2021/01/16 05:25:42;;;;;;;49.42;20.25;;;0.50;99.90;;;;;;5016400;28;20556;-75
2021/01/16 05:28:09;;;;;;;49.08;19.70;;;0.50;99.90;;;;;;5013430;28;20038;-75
2021/01/16 05:31:07;;;;;;;40.42;17.45;;;0.50;99.90;;;;;;5028800;28;20079;-75
2021/01/16 05:33:35;;;;;;;43.55;18.67;;;0.50;99.90;;;;;;4997435;28;20541;-75
2021/01/16 05:36:07;;;;;;;42.22;17.85;;;0.50;99.90;;;;;;5013794;28;20048;-75
2021/01/16 05:38:41;;;;;;;47.17;18.88;;;0.50;99.90;;;;;;5016096;28;20048;-75
2021/01/16 05:41:12;;;;;;;45.20;19.40;;;0.60;99.90;;;;;;5013425;28;20033;-74
2021/01/16 05:43:39;;;;;;;45.95;19.02;;;0.50;99.90;;;;;;5010650;28;20026;-75
2021/01/16 05:46:09;;;;;;;44.05;19.27;;;0.50;99.90;;;;;;5008153;28;20082;-74
2021/01/16 05:48:35;;;;;;;44.92;18.88;;;0.50;99.90;;;;;;5013548;28;20120;-76
2021/01/16 05:51:02;;;;;;;45.42;17.90;;;0.50;99.90;;;;;;5016218;28;20116;-75
2021/01/16 05:53:28;;;;;;;44.55;19.02;;;0.50;99.90;;;;;;5012204;28;20034;-75
2021/01/16 05:55:55;;;;;;;39.05;17.23;;;0.50;99.90;;;;;;5015055;28;20139;-75
2021/01/16 05:58:23;;;;;;;45.72;17.88;;;0.60;99.90;;;;;;5016881;28;20499;-75
2021/01/16 06:00:51;;;;;;;46.08;19.27;;;0.60;99.90;;;;;;5015026;28;20046;-75
2021/01/16 06:03:19;;;;;;;50.92;20.70;;;0.60;99.90;;;;;;5001468;28;20033;-75
2021/01/16 06:05:49;;;;;;;40.97;18.27;;;0.50;99.90;;;;;;5003727;28;20030;-75
2021/01/16 06:08:16;;;;;;;43.75;19.42;;;0.60;99.90;;;;;;5010680;28;20037;-75
2021/01/16 06:10:43;;;;;;;46.33;20.15;;;0.50;99.90;;;;;;5011249;28;20034;-75
2021/01/16 06:13:17;;;;;;;43.10;18.98;;;0.50;99.90;;;;;;5013054;28;20038;-75
2021/01/16 06:15:48;;;;;;;47.42;18.00;;;0.50;99.90;;;;;;5014066;28;20076;-75
2021/01/16 06:18:17;;;;;;;40.70;18.02;;;0.50;99.90;;;;;;5014606;28;20671;-75
2021/01/16 06:20:51;;;;;;;48.92;20.13;;;0.50;99.90;;;;;;5002941;28;20128;-75
2021/01/16 06:23:18;;;;;;;;;;;0.50;99.90;;;;;;5007194;28;20042;-75
2021/01/16 06:25:49;;;;;;;47.88;18.02;;;0.50;99.90;;;;;;5009176;28;19917;-76
2021/01/16 06:28:18;;;;;;;47.60;20.23;;;0.50;99.90;;;;;;5012474;28;20033;-77
2021/01/16 06:30:52;;;;;;;46.58;19.52;;;0.50;99.90;;;;;;5014137;28;20062;-77
2021/01/16 06:33:29;;;;;;;47.45;18.83;;;0.50;99.90;;;;;;5009073;28;20038;-75
2021/01/16 06:36:03;;;;;;;48.28;19.30;;;0.50;99.90;;;;;;5018495;28;20517;-75
2021/01/16 06:38:31;;;;;;;49.90;19.85;;;0.50;99.90;;;;;;5005506;28;20103;-76
2021/01/16 06:41:13;;;;;;;44.47;19.63;;;0.50;99.90;;;;;;5011543;28;20038;-75
2021/01/16 06:43:42;;;;;;;45.63;18.98;;;0.60;99.90;;;;;;5011239;28;20569;-77
2021/01/16 06:46:11;;;;;;;47.78;19.80;;;0.50;99.90;;;;;;5008240;28;20066;-74
2021/01/16 06:48:42;;;;;;;48.63;19.98;;;0.50;99.90;;;;;;5009555;28;20071;-75
2021/01/16 06:51:22;;;;;;;45.10;19.90;;;0.50;99.90;;;;;;5010777;28;20060;-74
2021/01/16 06:53:47;;;;;;;53.25;19.50;;;0.60;99.90;;;;;;5014503;28;20939;-75
2021/01/16 06:56:15;;;;;;;47.30;20.10;;;0.50;99.90;;;;;;5013290;28;20064;-75
2021/01/16 06:58:43;;;;;;;46.10;19.40;;;0.50;99.90;;;;;;5012596;28;20042;-75
2021/01/16 07:01:10;;;;;;;43.90;18.65;;;0.50;99.90;;;;;;5009205;28;20041;-75
2021/01/16 07:03:43;;;;;;;45.08;18.85;;;0.50;99.90;;;;;;5011507;28;20034;-76
2021/01/16 07:06:10;;;;;;;45.80;19.40;;;0.50;99.90;;;;;;5016413;28;20486;-78
2021/01/16 07:08:39;;;;;;;45.28;19.08;;;0.50;99.90;;;;;;4999293;28;20056;-83
2021/01/16 07:11:07;;;;;;;45.40;19.05;;;0.50;99.90;;;;;;5019674;28;20053;-76
2021/01/16 07:13:33;;;;;;;51.63;19.20;;;0.50;99.90;;;;;;5003929;28;20033;-76
2021/01/16 07:16:02;;;;;;;44.05;19.02;;;0.50;99.90;;;;;;5013755;28;20458;-76
2021/01/16 07:18:28;;;;;;;46.08;18.70;;;0.50;99.90;;;;;;5008911;28;20222;-76
2021/01/16 07:20:56;;;;;;;50.78;19.80;;;0.50;99.90;;;;;;5011686;28;20117;-76
2021/01/16 07:23:22;;;;;;;46.38;16.90;;;0.50;99.90;;;;;;5003745;28;20110;-76
2021/01/16 07:25:54;;;;;;;44.08;17.80;;;0.50;99.90;;;;;;5012778;28;20109;-77
2021/01/16 07:28:21;;;;;;;45.72;18.17;;;0.50;99.90;;;;;;5013295;28;20460;-76
2021/01/16 07:30:52;;;;;;;50.15;18.98;;;0.50;99.90;;;;;;5010388;28;20041;-76
2021/01/16 07:33:18;;;;;;;50.25;19.55;;;0.60;99.90;;;;;;5010097;28;20045;-76
2021/01/16 07:35:49;;;;;;;42.60;18.98;;;0.50;99.90;;;;;;5017414;28;20038;-76
2021/01/16 07:38:19;;;;;;;38.17;15.98;;;0.50;99.90;;;;;;5015756;28;20050;-76
2021/01/16 07:40:46;;;;;;;47.63;19.15;;;0.50;99.90;;;;;;5012827;28;20038;-77
2021/01/16 07:43:15;;;;;;;47.70;18.52;;;0.60;99.90;;;;;;5015232;28;20030;-77
2021/01/16 07:45:49;;;;;;;43.28;18.55;;;0.50;99.90;;;;;;5015535;28;20172;-76
2021/01/16 07:48:20;;;;;;;44.53;18.27;;;0.50;99.90;;;;;;5013254;28;20102;-76
2021/01/16 07:50:51;;;;;;;42.92;19.33;;;0.60;99.90;;;;;;5011905;28;20455;-76
2021/01/16 07:53:25;;;;;;;48.13;18.95;;;0.50;99.90;;;;;;5014240;28;20509;-76
2021/01/16 07:56:00;;;;;;;42.60;17.70;;;0.50;99.90;;;;;;5019446;28;20046;-78
2021/01/16 07:58:34;;;;;;;49.17;20.02;;;0.50;99.90;;;;;;5016289;28;20097;-77
2021/01/16 08:01:03;;;;;;;55.00;19.17;;;0.50;99.90;;;;;;5013567;28;20041;-77
2021/01/16 08:03:52;;;;;;;47.50;20.92;;;0.50;99.90;;;;;;5011852;28;20156;-77
2021/01/16 08:06:34;;;;;;;53.15;19.75;;;0.60;99.90;;;;;;5015163;28;20102;-79
2021/01/16 08:09:15;;;;;;;49.42;20.05;;;0.50;99.90;;;;;;5017426;28;20033;-77
2021/01/16 08:11:49;;;;;;;51.80;19.13;;;0.60;99.90;;;;;;5008846;28;20073;-76
2021/01/16 08:14:19;;;;;;;40.10;18.05;;;0.50;99.90;;;;;;5003265;28;20034;-76
2021/01/16 08:16:50;;;;;;;44.65;17.88;;;0.60;99.90;;;;;;5015428;28;20036;-78
2021/01/16 08:19:38;;;;;;;43.55;17.30;;;0.60;99.90;;;;;;5022800;28;20058;-77
2021/01/16 08:22:14;;;;;;;41.45;18.60;;;0.60;99.90;;;;;;5009642;28;20034;-77
2021/01/16 08:25:02;;;;;;;44.47;18.55;;;0.60;99.90;;;;;;5011842;28;20044;-77
2021/01/16 08:27:39;;;;;;;48.05;20.33;;;0.70;99.90;;;;;;5014564;28;20041;-77
2021/01/16 08:30:15;;;;;;;46.25;19.42;;;0.80;99.90;;;;;;5012745;28;20107;-78
2021/01/16 08:33:12;;;;;;;48.22;21.17;;;0.70;99.90;;;;;;5015811;28;20029;-77
2021/01/16 08:35:42;;;;;;;41.72;19.65;;;0.80;99.90;;;;;;5014445;28;20587;-76
2021/01/16 08:38:17;;;;;;;46.55;19.52;;;0.80;99.90;;;;;;5013158;28;20033;-76
2021/01/16 08:41:03;;;;;;;53.15;21.92;;;0.70;99.90;;;;;;5038648;28;20049;-79
2021/01/16 08:43:43;;;;;;;43.17;18.88;;;0.80;99.90;;;;;;5035528;28;20021;-79
2021/01/16 08:46:32;;;;;;;52.05;22.02;;;0.80;99.90;;;;;;5032928;28;20021;-77
2021/01/16 08:49:14;;;;;;;48.58;19.88;;;0.70;99.90;;;;;;5034211;28;20066;-76
2021/01/16 08:51:44;;;;;;;51.55;21.67;;;0.60;99.90;;;;;;5035918;28;20018;-77
2021/01/16 08:54:11;;;;;;;45.75;18.67;;;0.70;99.90;;;;;;5038484;28;20075;-76
2021/01/16 08:56:37;;;;;;;53.22;21.08;;;0.70;99.90;;;;;;5038404;28;20046;-77
2021/01/16 08:59:18;;;;;;;48.47;20.23;;;0.60;99.90;;;;;;5041934;28;20116;-76
2021/01/16 09:01:46;;;;;;;50.78;21.52;;;0.60;99.90;;;;;;5049093;28;20061;-77
2021/01/16 09:04:16;;;;;;;46.88;19.00;;;0.60;99.90;;;;;;5010489;28;20037;-76
2021/01/16 09:06:42;;;;;;;51.90;20.55;;;0.50;99.90;;;;;;5012976;28;20044;-76
2021/01/16 09:09:08;;;;;;;49.35;21.80;;;0.60;99.90;;;;;;5011857;28;20057;-76
2021/01/16 09:11:33;;;;;;;52.42;20.92;;;0.70;99.90;;;;;;5014832;28;20061;-76
2021/01/16 09:14:02;;;;;;;51.15;21.10;;;0.70;99.90;;;;;;5011935;28;20045;-77
2021/01/16 09:16:32;;;;;;;43.35;19.45;;;0.60;99.90;;;;;;5015053;28;20042;-77
2021/01/16 09:18:58;;;;;;;51.63;20.25;;;0.60;99.90;;;;;;5009143;28;20042;-78
2021/01/16 09:21:25;;;;;;;50.63;21.17;;;0.60;99.90;;;;;;5021366;28;20051;-76
2021/01/16 09:23:51;;;;;;;44.60;20.77;;;0.70;99.90;;;;;;5017214;28;20229;-80
2021/01/16 09:26:18;;;;;;;49.85;20.63;;;0.70;99.90;;;;;;5015741;28;20075;-76
2021/01/16 09:28:51;;;;;;;43.95;18.80;;;0.70;99.90;;;;;;5012890;28;20033;-80
2021/01/16 09:31:31;;;;;;;43.08;18.15;;;0.70;99.90;;;;;;5011601;28;20061;-81
2021/01/16 09:34:13;;;;;;;47.13;19.80;;;0.90;99.90;;;;;;5019798;28;20033;-79
2021/01/16 09:36:41;;;;;;;41.53;17.73;;;0.90;99.90;;;;;;5015903;28;20041;-80
2021/01/16 09:39:22;;;;;;;47.03;19.50;;;0.90;99.90;;;;;;5014171;28;20096;-78
2021/01/16 09:42:20;;;;;;;44.08;18.73;;;0.90;99.90;;;;;;5004173;28;21048;-79
2021/01/16 09:44:53;;;;;;;47.00;20.02;;;0.90;99.90;;;;;;5012030;28;20049;-78
2021/01/16 09:47:25;;;;;;;42.75;18.67;;;1.00;99.90;;;;;;5014099;28;20409;-79
2021/01/16 09:49:52;;;;;;;45.80;19.33;;;0.90;99.90;;;;;;5013474;28;20543;-79
2021/01/16 09:52:18;;;;;;;45.90;18.15;;;0.80;99.90;;;;;;5006359;28;20049;-78
2021/01/16 09:54:44;;;;;;;43.72;19.10;;;0.90;99.90;;;;;;5014407;28;20533;-78
2021/01/16 09:57:11;;;;;;;44.65;18.25;;;0.90;99.90;;;;;;5010724;28;20037;-79
2021/01/16 09:59:39;;;;;;;41.35;18.02;;;1.00;99.90;;;;;;5004321;28;20037;-81
2021/01/16 10:02:10;;;;;;;44.88;18.30;;;1.10;99.90;;;;;;5010483;28;20723;-75
2021/01/16 10:04:46;;;;;;;49.47;19.40;;;1.00;99.90;;;;;;5007532;28;20126;-77
2021/01/16 10:07:14;;;;;;;43.17;17.20;;;1.00;99.90;;;;;;5007149;28;20054;-74
2021/01/16 10:09:44;;;;;;;41.85;17.48;;;1.10;99.90;;;;;;5009807;28;20037;-75
2021/01/16 10:12:35;;;;;;;43.42;18.23;;;1.10;99.90;;;;;;5020430;28;20037;-74
2021/01/16 10:15:17;;;;;;;40.80;17.25;;;1.20;99.90;;;;;;5007390;28;20037;-74
2021/01/16 10:17:50;;;;;;;38.13;18.15;;;1.30;99.90;;;;;;5013170;28;20084;-75
2021/01/16 10:20:16;;;;;;;39.75;17.00;;;1.20;99.90;;;;;;5012529;28;20042;-74
2021/01/16 10:22:47;;;;;;;35.00;16.80;;;1.40;99.90;;;;;;5001931;28;20432;-74
2021/01/16 10:25:13;;;;;;;35.38;14.40;;;1.30;99.90;;;;;;5001823;28;20127;-74
2021/01/16 10:27:43;;;;;;;33.83;16.23;;;1.30;99.90;;;;;;4999026;28;20106;-75
2021/01/16 10:30:18;;;;;;;38.10;16.17;;;1.40;99.90;;;;;;5001264;28;20026;-75
2021/01/16 10:32:44;;;;;;;37.08;15.85;;;1.40;99.90;;;;;;5000526;28;20034;-75
2021/01/16 10:35:18;;;;;;;38.05;15.05;;;1.60;99.90;;;;;;5008804;28;20450;-75
2021/01/16 10:37:44;;;;;;;29.42;14.55;;;1.70;99.90;;;;;;5007869;28;20030;-75
2021/01/16 10:40:10;;;;;;;32.05;14.63;;;1.70;99.90;;;;;;5006527;28;20045;-75
2021/01/16 10:42:50;;;;;;;30.90;13.50;;;1.90;99.90;;;;;;5007307;28;20046;-75
2021/01/16 10:45:18;;;;;;;33.85;12.23;;;2.00;99.90;;;;;;5007413;28;20034;-74
2021/01/16 10:47:46;;;;;;;28.35;12.80;;;1.90;99.90;;;;;;5014376;28;20087;-74
2021/01/16 10:50:30;;;;;;;27.27;12.55;;;1.90;99.90;;;;;;5015808;28;20521;-75
2021/01/16 10:53:06;;;;;;;32.78;14.00;;;1.90;99.90;;;;;;5014784;28;20029;-75
2021/01/16 10:55:55;;;;;;;33.00;14.13;;;1.80;99.90;;;;;;5010373;28;20372;-74
2021/01/16 10:58:28;;;;;;;45.00;16.95;;;2.00;99.90;;;;;;5014846;28;20462;-74
2021/01/16 11:01:02;;;;;;;37.42;17.13;;;1.60;99.90;;;;;;5016022;28;20056;-75
2021/01/16 11:03:28;;;;;;;42.75;18.42;;;1.40;99.90;;;;;;5029148;28;20537;-74
2021/01/16 11:05:56;;;;;;;45.08;18.42;;;1.40;99.90;;;;;;5015053;28;20568;-74
2021/01/16 11:08:29;;;;;;;43.00;18.23;;;1.30;99.90;;;;;;5014009;28;20061;-74
2021/01/16 11:10:56;;;;;;;48.33;19.25;;;1.30;99.90;;;;;;5012580;28;20105;-72
2021/01/16 11:13:25;;;;;;;45.28;20.60;;;1.50;99.90;;;;;;5014338;28;20044;-74
2021/01/16 11:15:53;;;;;;;42.50;17.67;;;1.60;99.90;;;;;;5014978;28;20049;-75
2021/01/16 11:18:30;;;;;;;40.53;18.05;;;1.60;99.90;;;;;;5012497;28;20053;-75
2021/01/16 11:20:59;;;;;;;38.33;17.27;;;1.60;99.90;;;;;;5008891;28;20042;-75
2021/01/16 11:23:29;;;;;;;38.90;18.38;;;1.60;99.90;;;;;;5006697;28;20136;-74
2021/01/16 11:25:56;;;;;;;46.05;19.98;;;1.60;99.90;;;;;;5006141;28;20061;-75
2021/01/16 11:28:26;;;;;;;40.92;18.65;;;1.60;99.90;;;;;;5006959;28;20038;-74
2021/01/16 11:31:05;;;;;;;40.55;18.58;;;1.70;99.90;;;;;;5003683;28;20069;-75
2021/01/16 11:33:31;;;;;;;36.00;16.27;;;1.80;99.90;;;;;;5007231;28;20124;-76
2021/01/16 11:36:02;;;;;;;45.10;17.40;;;1.80;99.90;;;;;;5012555;28;20092;-74
2021/01/16 11:38:42;;;;;;;38.13;17.33;;;1.80;99.90;;;;;;5004680;28;20041;-75
2021/01/16 11:41:09;;;;;;;42.40;17.75;;;1.90;99.90;;;;;;5012538;28;20112;-74
2021/01/16 11:43:35;;;;;;;39.33;16.92;;;1.90;99.90;;;;;;5009903;28;20144;-75
2021/01/16 11:46:08;;;;;;;40.95;18.10;;;1.80;99.90;;;;;;5010673;28;20429;-74
2021/01/16 11:48:35;;;;;;;36.22;17.52;;;1.80;99.90;;;;;;5004878;28;20553;-74
2021/01/16 11:51:17;;;;;;;34.92;16.15;;;1.90;99.90;;;;;;5002418;28;20060;-75
2021/01/16 11:53:50;;;;;;;40.45;19.02;;;1.80;99.90;;;;;;5001049;28;20073;-74
2021/01/16 11:56:19;;;;;;;36.28;15.55;;;1.70;99.90;;;;;;5005262;28;20050;-73
2021/01/16 11:58:46;;;;;;;42.83;16.48;;;1.70;99.90;;;;;;5002999;28;20037;-77
2021/01/16 12:01:15;;;;;;;36.42;15.13;;;1.70;99.90;;;;;;4999967;28;20041;-78
2021/01/16 12:03:42;;;;;;;40.67;18.40;;;1.60;99.90;;;;;;5005953;28;20128;-77
2021/01/16 12:06:12;;;;;;;41.40;18.50;;;1.60;99.90;;;;;;5000768;28;20131;-75
2021/01/16 12:08:38;;;;;;;37.97;16.25;;;1.50;99.90;;;;;;5004313;28;20061;-76
2021/01/16 12:11:08;;;;;;;37.15;16.63;;;1.50;99.90;;;;;;5002988;28;20123;-74
2021/01/16 12:13:34;;;;;;;37.47;18.30;;;1.60;99.90;;;;;;5005659;28;20041;-74
2021/01/16 12:15:59;;;;;;;39.65;18.13;;;1.60;99.90;;;;;;5006972;28;20046;-75
2021/01/16 12:18:25;;;;;;;35.38;16.60;;;1.60;99.90;;;;;;5008981;28;20087;-74
2021/01/16 12:20:51;;;;;;;41.70;17.73;;;1.70;99.90;;;;;;5007904;28;20025;-74
2021/01/16 12:23:20;;;;;;;41.97;18.55;;;1.70;99.90;;;;;;5006153;28;20107;-73
2021/01/16 12:25:51;;;;;;;44.83;19.05;;;1.70;99.90;;;;;;5014358;28;20375;-73
2021/01/16 12:28:24;;;;;;;49.70;19.33;;;1.60;99.90;;;;;;5016762;28;20041;-73
2021/01/16 12:30:50;;;;;;;39.33;18.08;;;1.60;99.90;;;;;;5006598;28;20402;-77
2021/01/16 12:33:22;;;;;;;39.50;17.52;;;1.60;99.90;;;;;;5006483;28;20041;-73
2021/01/16 12:35:48;;;;;;;36.10;15.93;;;1.50;99.90;;;;;;5006214;28;20045;-73
2021/01/16 12:38:14;;;;;;;37.25;17.65;;;1.50;99.90;;;;;;5006938;28;20029;-75
2021/01/16 12:40:40;;;;;;;40.22;17.20;;;1.60;99.90;;;;;;5006026;28;20040;-75
2021/01/16 12:43:11;;;;;;;34.80;16.38;;;1.60;99.90;;;;;;5008673;28;20042;-75
2021/01/16 12:45:36;;;;;;;39.15;16.92;;;1.50;99.90;;;;;;5009736;28;20045;-75
2021/01/16 12:48:04;;;;;;;34.88;16.40;;;1.50;99.90;;;;;;5009162;28;20038;-76
2021/01/16 12:50:29;;;;;;;37.53;16.58;;;1.40;99.90;;;;;;5007959;28;20046;-76
2021/01/16 12:52:56;;;;;;;37.58;16.83;;;1.40;99.90;;;;;;5007721;28;20072;-76